createdAt,value
2022-08-31T00:00:41.461Z,22.01
2022-08-31T00:03:29.570Z,21.82
2022-08-31T00:05:59.257Z,21.93
2022-08-31T00:08:30.643Z,22.01
2022-08-31T00:11:03.299Z,21.95
2022-08-31T00:13:33.465Z,21.75
2022-08-31T00:16:13.023Z,21.91
2022-08-31T00:18:42.272Z,21.83
2022-08-31T00:21:10.407Z,21.77
2022-08-31T00:23:40.101Z,21.70
2022-08-31T00:26:11.882Z,21.80
2022-08-31T00:28:41.246Z,21.72
2022-08-31T00:31:12.274Z,21.61
2022-08-31T00:33:42.013Z,21.62
2022-08-31T00:36:16.581Z,21.59
2022-08-31T00:38:48.261Z,21.60
2022-08-31T00:41:19.329Z,21.52
2022-08-31T00:43:52.137Z,21.41
2022-08-31T00:46:23.455Z,21.26
2022-08-31T00:49:01.332Z,21.32
2022-08-31T00:51:30.964Z,21.40
2022-08-31T00:54:01.035Z,21.51
2022-08-31T00:56:31.530Z,21.57
2022-08-31T00:59:01.264Z,21.27
2022-08-31T01:01:31.025Z,21.42
2022-08-31T01:04:00.990Z,21.10
2022-08-31T01:06:29.630Z,21.11
2022-08-31T01:09:00.588Z,21.14
2022-08-31T01:11:30.416Z,21.10
2022-08-31T01:13:58.515Z,21.10
2022-08-31T01:16:34.085Z,21.05
2022-08-31T01:19:04.738Z,21.07
2022-08-31T01:21:39.526Z,21.05
2022-08-31T01:24:12.369Z,21.10
2022-08-31T01:26:40.975Z,21.01
2022-08-31T01:29:10.138Z,20.98
2022-08-31T01:31:45.125Z,21.06
2022-08-31T01:34:14.352Z,21.14
2022-08-31T01:36:43.881Z,20.87
2022-08-31T01:39:15.300Z,21.12
2022-08-31T01:41:45.868Z,20.99
2022-08-31T01:44:16.929Z,20.92
2022-08-31T01:46:46.361Z,21.13
2022-08-31T01:49:16.033Z,21.11
2022-08-31T01:51:46.535Z,21.13
2022-08-31T01:54:16.249Z,20.98
2022-08-31T01:56:47.434Z,20.94
2022-08-31T01:59:22.240Z,20.79
2022-08-31T02:02:06.464Z,20.79
2022-08-31T02:04:38.346Z,20.79
2022-08-31T02:07:06.751Z,20.94
2022-08-31T02:09:41.750Z,20.96
2022-08-31T02:12:12.770Z,20.71
2022-08-31T02:14:42.781Z,20.89
2022-08-31T02:17:11.762Z,20.92
2022-08-31T02:19:40.062Z,20.79
2022-08-31T02:22:08.265Z,20.70
2022-08-31T02:24:36.361Z,20.68
2022-08-31T02:27:06.740Z,20.56
2022-08-31T02:29:38.188Z,20.74
2022-08-31T02:32:07.628Z,20.79
2022-08-31T02:34:37.774Z,20.60
2022-08-31T02:37:05.907Z,20.58
2022-08-31T02:39:39.734Z,20.57
2022-08-31T02:42:10.460Z,20.77
2022-08-31T02:44:38.726Z,20.67
2022-08-31T02:47:06.879Z,20.59
2022-08-31T02:49:41.735Z,20.50
2022-08-31T02:52:09.858Z,20.71
2022-08-31T02:54:40.851Z,20.55
2022-08-31T02:57:12.138Z,20.50
2022-08-31T02:59:40.786Z,20.50
2022-08-31T03:02:10.412Z,20.43
2022-08-31T03:04:40.274Z,20.47
2022-08-31T03:07:08.480Z,20.47
2022-08-31T03:09:39.907Z,20.47
2022-08-31T03:12:17.352Z,20.74
2022-08-31T03:14:45.758Z,20.64
2022-08-31T03:17:15.158Z,20.59
2022-08-31T03:19:43.321Z,20.43
2022-08-31T03:22:15.137Z,20.50
2022-08-31T03:24:44.068Z,20.51
2022-08-31T03:27:14.583Z,20.51
2022-08-31T03:29:42.968Z,20.45
2022-08-31T03:32:20.124Z,20.31
2022-08-31T03:34:54.580Z,20.46
2022-08-31T03:37:24.420Z,20.22
2022-08-31T03:39:55.978Z,20.22
2022-08-31T03:42:27.538Z,20.26
2022-08-31T03:44:57.862Z,20.44
2022-08-31T03:47:31.429Z,20.09
2022-08-31T03:50:04.069Z,20.24
2022-08-31T03:52:45.755Z,20.15
2022-08-31T03:55:21.326Z,20.32
2022-08-31T03:57:51.317Z,20.31
2022-08-31T04:00:20.051Z,20.24
2022-08-31T04:02:57.418Z,20.15
2022-08-31T04:05:34.331Z,20.14
2022-08-31T04:08:18.860Z,20.26
2022-08-31T04:11:13.101Z,20.24
2022-08-31T04:14:02.371Z,20.30
2022-08-31T04:16:37.096Z,20.29
2022-08-31T04:19:20.202Z,20.00
2022-08-31T04:22:14.967Z,19.98
2022-08-31T04:24:56.748Z,19.96
2022-08-31T04:27:26.990Z,20.07
2022-08-31T04:29:56.627Z,19.97
2022-08-31T04:32:24.818Z,20.06
2022-08-31T04:34:56.393Z,20.27
2022-08-31T04:37:24.884Z,20.25
2022-08-31T04:39:55.679Z,20.32
2022-08-31T04:42:29.590Z,20.26
2022-08-31T04:44:59.289Z,20.23
2022-08-31T04:47:27.905Z,20.41
2022-08-31T04:49:56.934Z,20.32
2022-08-31T04:52:28.327Z,20.30
2022-08-31T04:54:57.871Z,20.29
2022-08-31T04:57:27.301Z,20.24
2022-08-31T04:59:55.714Z,20.36
2022-08-31T05:02:46.788Z,20.30
2022-08-31T05:05:20.512Z,20.30
2022-08-31T05:07:48.983Z,20.38
2022-08-31T05:10:19.204Z,20.56
2022-08-31T05:12:47.359Z,20.48
2022-08-31T05:15:16.049Z,20.39
2022-08-31T05:17:46.367Z,20.54
2022-08-31T05:20:15.920Z,20.93
2022-08-31T05:22:44.929Z,20.62
2022-08-31T05:25:13.340Z,20.55
2022-08-31T05:27:42.340Z,20.54
2022-08-31T05:30:13.184Z,20.76
2022-08-31T05:32:45.430Z,20.81
2022-08-31T05:35:16.679Z,20.76
2022-08-31T05:37:46.019Z,20.84
2022-08-31T05:40:15.479Z,20.76
2022-08-31T05:42:43.535Z,20.86
2022-08-31T05:45:13.107Z,20.64
2022-08-31T05:47:43.161Z,20.85
2022-08-31T05:50:11.895Z,20.97
2022-08-31T05:52:45.485Z,21.20
2022-08-31T05:55:13.678Z,20.92
2022-08-31T05:57:43.397Z,20.77
2022-08-31T06:00:12.872Z,21.08
2022-08-31T06:02:41.886Z,21.17
2022-08-31T06:05:13.942Z,21.21
2022-08-31T06:07:47.094Z,21.23
2022-08-31T06:10:17.108Z,21.19
2022-08-31T06:12:48.933Z,21.25
2022-08-31T06:15:21.091Z,21.14
2022-08-31T06:17:49.284Z,21.18
2022-08-31T06:20:18.576Z,21.24
2022-08-31T06:22:50.342Z,21.30
2022-08-31T06:25:32.763Z,21.07
2022-08-31T06:28:01.744Z,21.41
2022-08-31T06:30:32.819Z,21.81
2022-08-31T06:33:02.029Z,21.59
2022-08-31T06:35:41.113Z,21.67
2022-08-31T06:38:29.155Z,21.88
2022-08-31T06:41:36.406Z,21.66
2022-08-31T06:44:26.984Z,21.62
2022-08-31T06:47:10.524Z,21.65
2022-08-31T06:49:42.016Z,21.57
2022-08-31T06:52:10.267Z,21.46
2022-08-31T06:54:41.470Z,21.50
2022-08-31T06:57:28.708Z,21.60
2022-08-31T07:00:15.512Z,21.55
2022-08-31T07:03:23.218Z,21.56
2022-08-31T07:05:53.977Z,21.56
2022-08-31T07:08:22.757Z,21.72
2022-08-31T07:10:53.926Z,21.44
2022-08-31T07:13:22.059Z,21.62
2022-08-31T07:15:52.659Z,21.87
2022-08-31T07:18:20.990Z,21.93
2022-08-31T07:20:49.832Z,22.04
2022-08-31T07:23:18.603Z,21.98
2022-08-31T07:26:05.359Z,22.24
2022-08-31T07:28:33.899Z,22.06
2022-08-31T07:31:03.456Z,21.72
2022-08-31T07:33:39.066Z,21.71
2022-08-31T07:36:15.252Z,21.58
2022-08-31T07:39:11.100Z,21.70
2022-08-31T07:42:02.670Z,21.73
2022-08-31T07:44:34.630Z,22.21
2022-08-31T07:47:04.550Z,21.98
2022-08-31T07:49:33.012Z,22.01
2022-08-31T07:52:11.675Z,22.43
2022-08-31T07:55:07.808Z,22.28
2022-08-31T07:57:54.911Z,22.38
2022-08-31T08:00:25.508Z,22.39
2022-08-31T08:02:54.237Z,21.95
2022-08-31T08:05:28.774Z,22.11
2022-08-31T08:08:23.282Z,22.41
2022-08-31T08:11:10.065Z,22.50
2022-08-31T08:13:43.924Z,22.64
2022-08-31T08:16:36.478Z,22.62
2022-08-31T08:19:20.358Z,22.79
2022-08-31T08:21:52.193Z,22.98
2022-08-31T08:24:31.908Z,23.14
2022-08-31T08:27:23.407Z,23.27
2022-08-31T08:30:01.886Z,22.91
2022-08-31T08:32:41.168Z,23.08
2022-08-31T08:35:11.084Z,23.32
2022-08-31T08:37:57.785Z,23.55
2022-08-31T08:40:32.435Z,23.36
2022-08-31T08:43:02.469Z,23.47
2022-08-31T08:45:34.111Z,23.67
2022-08-31T08:48:09.723Z,23.62
2022-08-31T08:50:38.235Z,23.49
2022-08-31T08:53:08.778Z,23.45
2022-08-31T08:55:41.662Z,23.40
2022-08-31T08:58:12.873Z,23.57
2022-08-31T09:19:23.292Z,24.18
2022-08-31T09:22:34.481Z,23.94
2022-08-31T09:25:52.213Z,24.24
2022-08-31T09:29:25.009Z,24.24
2022-08-31T09:32:36.509Z,24.67
2022-08-31T09:35:48.324Z,24.08
2022-08-31T09:38:59.953Z,24.43
2022-08-31T09:42:20.216Z,24.37
2022-08-31T09:45:41.418Z,24.63
2022-08-31T09:48:10.734Z,24.71
2022-08-31T09:50:45.184Z,24.85
2022-08-31T09:54:04.977Z,24.82
2022-08-31T09:56:36.529Z,25.06
2022-08-31T09:59:11.931Z,24.88
2022-08-31T10:01:45.609Z,25.09
2022-08-31T10:04:19.640Z,25.27
2022-08-31T10:06:56.494Z,25.38
2022-08-31T10:09:33.643Z,25.64
2022-08-31T10:12:06.628Z,25.80
2022-08-31T10:14:40.923Z,25.69
2022-08-31T10:17:15.329Z,25.56
2022-08-31T10:19:53.100Z,25.60
2022-08-31T10:22:28.395Z,26.03
2022-08-31T10:25:15.568Z,25.94
2022-08-31T10:27:48.699Z,25.82
2022-08-31T10:30:36.744Z,25.69
2022-08-31T10:33:13.362Z,25.88
2022-08-31T10:35:52.838Z,25.69
2022-08-31T10:38:27.447Z,25.47
2022-08-31T10:41:13.162Z,25.56
2022-08-31T10:43:46.741Z,25.33
2022-08-31T10:46:17.199Z,25.61
2022-08-31T10:48:52.336Z,25.47
2022-08-31T10:51:27.044Z,25.54
2022-08-31T10:54:08.257Z,25.60
2022-08-31T10:56:44.237Z,25.81
2022-08-31T10:59:21.532Z,25.96
2022-08-31T11:01:57.651Z,25.86
2022-08-31T11:05:03.500Z,25.67
2022-08-31T11:07:40.123Z,25.59
2022-08-31T11:10:29.083Z,25.72
2022-08-31T11:13:02.126Z,25.55
2022-08-31T11:16:06.695Z,25.67
2022-08-31T11:19:09.247Z,25.58
2022-08-31T11:22:28.705Z,25.55
2022-08-31T11:25:18.005Z,26.03
2022-08-31T11:27:52.998Z,26.17
2022-08-31T11:30:26.827Z,26.32
2022-08-31T11:32:57.693Z,26.08
2022-08-31T11:36:04.047Z,26.14
2022-08-31T11:39:15.249Z,26.29
2022-08-31T11:41:46.760Z,26.23
2022-08-31T11:45:00.984Z,26.42
2022-08-31T11:47:43.523Z,26.29
2022-08-31T11:50:54.482Z,26.08
2022-08-31T11:53:29.828Z,26.03
2022-08-31T11:56:00.639Z,26.16
2022-08-31T11:58:33.869Z,26.24
2022-08-31T12:01:07.038Z,26.06
2022-08-31T12:03:44.331Z,26.06
2022-08-31T12:06:50.884Z,26.07
2022-08-31T12:09:40.932Z,26.28
2022-08-31T12:12:14.194Z,26.21
2022-08-31T12:14:50.335Z,25.96
2022-08-31T12:17:23.109Z,26.09
2022-08-31T12:20:02.242Z,25.93
2022-08-31T12:23:36.218Z,25.85
2022-08-31T12:26:13.481Z,25.87
2022-08-31T12:29:23.076Z,25.82
2022-08-31T12:32:14.407Z,25.91
2022-08-31T12:34:47.353Z,25.91
2022-08-31T12:37:23.779Z,26.03
2022-08-31T12:40:11.454Z,25.97
2022-08-31T12:42:46.325Z,25.91
2022-08-31T12:45:19.719Z,25.92
2022-08-31T12:47:55.143Z,25.78
2022-08-31T12:50:29.662Z,25.74
2022-08-31T12:53:39.837Z,25.47
2022-08-31T12:56:15.122Z,25.43
2022-08-31T12:58:56.170Z,25.40
2022-08-31T13:01:27.243Z,25.43
2022-08-31T13:03:57.749Z,25.36
2022-08-31T13:06:28.009Z,25.16
2022-08-31T13:09:01.819Z,25.29
2022-08-31T13:11:40.267Z,25.10
2022-08-31T13:14:13.290Z,25.04
2022-08-31T13:16:44.405Z,24.94
2022-08-31T13:19:22.901Z,24.91
2022-08-31T13:21:53.587Z,24.87
2022-08-31T13:24:32.219Z,24.83
2022-08-31T13:27:08.360Z,24.87
2022-08-31T13:29:41.285Z,24.74
2022-08-31T13:32:09.733Z,24.74
2022-08-31T13:34:42.246Z,24.58
2022-08-31T13:37:15.218Z,24.75
2022-08-31T13:39:46.856Z,24.76
2022-08-31T13:42:25.613Z,24.70
2022-08-31T13:44:56.693Z,24.42
2022-08-31T13:47:29.000Z,24.27
2022-08-31T13:50:03.280Z,24.27
2022-08-31T13:52:34.786Z,24.41
2022-08-31T13:55:08.241Z,24.41
2022-08-31T13:57:38.412Z,24.48
2022-08-31T14:00:34.127Z,24.51
2022-08-31T14:03:33.819Z,24.28
2022-08-31T14:06:23.859Z,24.44
2022-08-31T14:08:55.056Z,24.44
2022-08-31T14:11:29.453Z,24.35
2022-08-31T14:14:06.136Z,24.00
2022-08-31T14:16:37.064Z,23.98
2022-08-31T14:19:06.119Z,24.04
2022-08-31T14:21:36.014Z,23.95
2022-08-31T14:24:05.341Z,23.91
2022-08-31T14:26:41.808Z,23.78
2022-08-31T14:29:12.456Z,23.78
2022-08-31T14:31:45.366Z,23.98
2022-08-31T14:34:23.334Z,23.89
2022-08-31T14:36:55.153Z,23.88
2022-08-31T14:39:27.311Z,23.76
2022-08-31T14:41:59.280Z,23.92
2022-08-31T14:44:32.121Z,23.71
2022-08-31T14:47:00.835Z,23.69
2022-08-31T14:49:36.568Z,23.69
2022-08-31T14:52:07.132Z,23.72
2022-08-31T14:54:37.941Z,23.56
2022-08-31T14:57:11.738Z,23.66
2022-08-31T14:59:44.852Z,23.69
2022-08-31T15:02:16.546Z,23.85
2022-08-31T15:04:46.040Z,23.60
2022-08-31T15:07:17.003Z,23.71
2022-08-31T15:09:46.956Z,23.67
2022-08-31T15:12:16.875Z,23.61
2022-08-31T15:14:47.432Z,23.67
2022-08-31T15:17:19.778Z,23.51
2022-08-31T15:19:53.234Z,23.49
2022-08-31T15:22:21.927Z,23.31
2022-08-31T15:24:50.300Z,23.43
2022-08-31T15:27:22.463Z,23.36
2022-08-31T15:30:04.580Z,23.38
2022-08-31T15:32:32.843Z,23.23
2022-08-31T15:35:02.295Z,23.30
2022-08-31T15:37:32.709Z,23.31
2022-08-31T15:40:03.759Z,22.99
2022-08-31T15:42:39.892Z,23.20
2022-08-31T15:45:10.791Z,23.15
2022-08-31T15:47:59.891Z,23.39
2022-08-31T15:50:32.426Z,23.02
2022-08-31T15:53:08.822Z,23.16
2022-08-31T15:55:39.000Z,22.83
2022-08-31T15:58:13.824Z,22.77
2022-08-31T16:00:42.984Z,23.07
2022-08-31T16:03:12.695Z,23.13
2022-08-31T16:05:44.498Z,23.07
2022-08-31T16:08:14.393Z,22.67
2022-08-31T16:10:45.400Z,22.48
2022-08-31T16:13:16.963Z,22.28
2022-08-31T16:15:51.151Z,22.39
2022-08-31T16:18:21.981Z,22.39
2022-08-31T16:20:52.224Z,22.39
2022-08-31T16:23:21.500Z,22.27
2022-08-31T16:25:51.855Z,22.14
2022-08-31T16:28:22.363Z,22.26
2022-08-31T16:30:52.176Z,22.23
2022-08-31T16:33:20.742Z,22.25
2022-08-31T16:35:50.774Z,22.18
2022-08-31T16:38:19.455Z,21.87
2022-08-31T16:40:48.963Z,21.83
2022-08-31T16:43:17.608Z,21.64
2022-08-31T16:45:47.254Z,21.68
2022-08-31T16:48:34.108Z,21.54
2022-08-31T16:51:04.129Z,21.44
2022-08-31T16:53:32.774Z,21.50
2022-08-31T16:56:03.895Z,21.52
2022-08-31T16:58:53.376Z,21.62
2022-08-31T17:01:40.431Z,21.80
2022-08-31T17:04:24.632Z,21.74
2022-08-31T17:07:03.350Z,21.68
2022-08-31T17:09:42.592Z,21.73
2022-08-31T17:12:17.700Z,21.54
2022-08-31T17:14:51.504Z,21.76
2022-08-31T17:17:22.630Z,21.56
2022-08-31T17:19:52.237Z,21.65
2022-08-31T17:22:29.911Z,21.71
2022-08-31T17:25:03.823Z,21.76
2022-08-31T17:27:34.172Z,21.67
2022-08-31T17:30:05.986Z,21.52
2022-08-31T17:32:45.166Z,21.38
2022-08-31T17:35:18.656Z,21.46
2022-08-31T17:37:49.177Z,21.44
2022-08-31T17:40:17.939Z,21.36
2022-08-31T17:42:46.558Z,21.22
2022-08-31T17:45:15.762Z,20.97
2022-08-31T17:47:45.782Z,20.99
2022-08-31T17:50:19.997Z,21.05
2022-08-31T17:52:48.999Z,21.06
2022-08-31T17:55:17.792Z,20.73
2022-08-31T17:57:47.099Z,20.85
2022-08-31T18:00:19.509Z,20.77
2022-08-31T18:02:50.371Z,20.93
2022-08-31T18:05:18.988Z,20.98
2022-08-31T18:07:50.241Z,20.96
2022-08-31T18:10:20.445Z,20.73
2022-08-31T18:12:48.923Z,20.93
2022-08-31T18:15:19.196Z,20.92
2022-08-31T18:17:48.146Z,20.95
2022-08-31T18:20:19.178Z,20.89
2022-08-31T18:22:52.062Z,20.69
2022-08-31T18:25:21.817Z,20.91
2022-08-31T18:27:58.376Z,20.79
2022-08-31T18:30:30.846Z,20.77
2022-08-31T18:33:03.344Z,20.59
2022-08-31T18:35:34.592Z,20.66
2022-08-31T18:38:08.562Z,20.59
2022-08-31T18:40:57.162Z,20.66
2022-08-31T18:43:46.534Z,20.78
2022-08-31T18:46:15.827Z,20.58
2022-08-31T18:48:54.948Z,20.60
2022-08-31T18:51:25.276Z,20.64
2022-08-31T18:53:56.309Z,20.54
2022-08-31T18:56:29.575Z,20.53
2022-08-31T18:58:59.485Z,20.49
2022-08-31T19:01:33.644Z,20.46
2022-08-31T19:04:03.403Z,20.43
2022-08-31T19:06:45.404Z,20.57
2022-08-31T19:09:15.323Z,20.36
2022-08-31T19:11:49.217Z,20.64
2022-08-31T19:14:20.609Z,20.64
2022-08-31T19:16:55.129Z,20.53
2022-08-31T19:19:31.070Z,20.64
2022-08-31T19:22:01.571Z,20.36
2022-08-31T19:24:30.271Z,20.49
2022-08-31T19:27:05.240Z,20.56
2022-08-31T19:29:37.969Z,20.62
2022-08-31T19:32:09.090Z,20.28
2022-08-31T19:34:41.628Z,20.32
2022-08-31T19:37:13.828Z,20.28
2022-08-31T19:39:45.822Z,20.28
2022-08-31T19:42:16.677Z,20.35
2022-08-31T19:44:55.768Z,20.45
2022-08-31T19:47:38.893Z,20.35
2022-08-31T19:50:13.558Z,20.05
2022-08-31T19:52:44.889Z,20.25
2022-08-31T19:55:13.850Z,20.12
2022-08-31T19:57:43.652Z,20.17
2022-08-31T20:00:13.749Z,20.42
2022-08-31T20:02:44.867Z,20.32
2022-08-31T20:05:15.941Z,20.23
2022-08-31T20:07:45.875Z,20.33
2022-08-31T20:10:16.779Z,20.42
2022-08-31T20:12:45.951Z,20.23
2022-08-31T20:15:15.674Z,20.28
2022-08-31T20:17:44.161Z,20.11
2022-08-31T20:20:13.546Z,20.30
2022-08-31T20:22:42.073Z,20.35
2022-08-31T20:25:18.054Z,20.39
2022-08-31T20:27:48.411Z,20.22
2022-08-31T20:30:19.623Z,20.09
2022-08-31T20:32:48.115Z,20.39
2022-08-31T20:35:16.883Z,20.36
2022-08-31T20:37:45.430Z,20.37
2022-08-31T20:40:17.433Z,20.32
2022-08-31T20:42:46.014Z,20.50
2022-08-31T20:45:14.428Z,20.36
2022-08-31T20:48:11.800Z,20.66
2022-08-31T20:50:43.061Z,20.41
2022-08-31T20:53:18.141Z,20.48
2022-08-31T20:55:55.077Z,20.31
2022-08-31T20:58:23.466Z,20.40
2022-08-31T21:00:51.752Z,20.45
2022-08-31T21:03:20.430Z,20.45
2022-08-31T21:05:48.868Z,20.46
2022-08-31T21:08:17.422Z,20.27
2022-08-31T21:10:45.661Z,20.39
2022-08-31T21:13:16.692Z,20.31
2022-08-31T21:15:46.744Z,20.32
2022-08-31T21:18:17.687Z,20.18
2022-08-31T21:20:46.445Z,20.26
2022-08-31T21:23:15.994Z,20.24
2022-08-31T21:25:45.969Z,20.22
2022-08-31T21:28:18.380Z,20.27
2022-08-31T21:30:49.145Z,20.30
2022-08-31T21:33:17.953Z,20.30
2022-08-31T21:35:46.142Z,20.32
2022-08-31T21:38:14.748Z,20.21
2022-08-31T21:40:49.239Z,20.22
2022-08-31T21:43:19.556Z,20.11
2022-08-31T21:45:48.316Z,20.14
2022-08-31T21:48:26.135Z,20.03
2022-08-31T21:50:54.747Z,19.94
2022-08-31T21:53:23.113Z,20.12
2022-08-31T21:55:51.241Z,19.97
2022-08-31T21:58:20.837Z,20.12
2022-08-31T22:00:51.130Z,20.09
2022-08-31T22:03:20.424Z,19.92
2022-08-31T22:05:48.697Z,20.06
2022-08-31T22:08:17.977Z,19.92
2022-08-31T22:10:46.198Z,19.92
2022-08-31T22:13:14.528Z,20.07
2022-08-31T22:15:47.150Z,19.96
2022-08-31T22:18:59.050Z,20.00
2022-08-31T22:21:05.400Z,19.76
2022-08-31T22:23:36.959Z,19.82
2022-08-31T22:26:05.768Z,19.76
2022-08-31T22:28:35.507Z,19.78
2022-08-31T22:31:07.462Z,19.76
2022-08-31T22:33:38.116Z,19.79
2022-08-31T22:36:25.775Z,19.70
2022-08-31T22:39:03.289Z,19.75
2022-08-31T22:41:32.847Z,19.79
2022-08-31T22:44:02.943Z,19.97
2022-08-31T22:46:34.018Z,19.92
2022-08-31T22:49:03.714Z,19.94
2022-08-31T22:51:33.261Z,19.80
2022-08-31T22:54:04.057Z,19.99
2022-08-31T22:56:34.490Z,20.01
2022-08-31T22:59:05.760Z,19.81
2022-08-31T23:01:38.437Z,19.89
2022-08-31T23:04:09.624Z,19.68
2022-08-31T23:06:39.846Z,19.46
2022-08-31T23:09:12.467Z,19.67
2022-08-31T23:11:41.092Z,19.70
2022-08-31T23:14:11.301Z,19.68
2022-08-31T23:16:42.910Z,19.74
2022-08-31T23:19:14.414Z,19.57
2022-08-31T23:21:45.148Z,19.83
2022-08-31T23:24:16.791Z,19.77
2022-08-31T23:26:49.759Z,19.69
2022-08-31T23:29:19.963Z,19.72
2022-08-31T23:31:50.341Z,19.59
2022-08-31T23:34:22.088Z,19.70
2022-08-31T23:36:53.356Z,19.65
2022-08-31T23:39:25.215Z,19.75
2022-08-31T23:41:53.884Z,19.60
2022-08-31T23:44:24.708Z,19.71
2022-08-31T23:46:55.428Z,19.64
2022-08-31T23:49:24.972Z,19.54
2022-08-31T23:51:53.855Z,19.54
2022-08-31T23:54:23.373Z,19.33
2022-08-31T23:56:57.864Z,19.64
2022-08-31T23:59:27.703Z,19.45
